Portada
METAR-TAF:

METAR-TAF

Aeroports :

Jerez de la Frontera, Espanya

latitud: 36-45N, longitud: 006-04W, altitud: 27 m

Observació

L'informe es va fer fa 19 minuts, a les 10:00 UTC
Vent 2 kt amb direcció variable
Temperatura 14°C
Humitat 77%
Pressió 1025 hPa
Visibilitat 10 km o més
Núvols disperses a una alçada de 1500 ft

METAR: LEJR 261000Z VRB02KT 9999 SCT015 14/10 Q1025

Hora: 11:19 (10:19 UTC)

Pronòstic

L'informe es va fer fa 2 hores i 25 minuts, a les 07:54 UTC
Pronòstic vàlid del 26 a les 07 UTC al 27 a les 06 UTC
Vent 6 kt del Nord-Oest
Visibilitat 10 km o més
sense núvols per sota de 1500 mi sense presència de cumulonimbus.
Temporalment
l' 26 a les 07 UTC al 26 a les 09 UTC
Visibilitat: 3000 m
boirina
Probabilitat 40% :
Temporalment
l' 26 a les 07 UTC al 26 a les 09 UTC
Visibilitat: 1000 m
boira en bancs

TAF: LEJR 260754Z 2607/2706 32006KT CAVOK TX20/2615Z TN05/2706Z TEMPO 2607/2609 3000 BR PROB40 TEMPO 2607/2609 1000 BCFG

Observacions i pronòstics meteorològics de més de 4000 aeroports (METAR i TAF).

Les estacions disponibles són els punts grocs i vermells al mapa.

Posi el ratolí al punt desitjat per veure el nom de l'estació.

Feu clic per veure les observacions i els pronòstics meteorològics.

Per canviar el mapa: feu clic els botons verds amb una creu de color negre per apropar; al botó verd amb un guió per allunyar la imatge; o en les fletxes verdes per a mapes adjacents.


METAR-TAF: